Time;durP1;ratioP1;P1;durP2;ratioP2;P2;SDS_P1;SDS_P2;PMS_P1;PMS_P2;Temp;Humidity;BMP_temperature;BMP_pressure;BME280_temperature;BME280_humidity;BME280_pressure;Samples;Min_cycle;Max_cycle;Signal;HPM_P1;HPM_P2
2021/06/13 00:00:12;;;;;;;5.78;4.10;;;;;;;;;;354728;27;1064;-66
2021/06/13 00:00:24;;;;;;;6.60;4.40;;;;;;;;;;354130;27;17060;-68
2021/06/13 00:00:37;;;;;;;6.00;4.28;;;;;;;;;;354656;27;1229;-67
2021/06/13 00:00:49;;;;;;;4.60;3.90;;;;;;;;;;354522;27;998;-66
2021/06/13 00:01:02;;;;;;;5.22;3.85;;;;;;;;;;355025;27;1013;-67
2021/06/13 00:01:15;;;;;;;6.50;4.10;;;;;;;;;;354731;27;1282;-67
2021/06/13 00:01:28;;;;;;;6.93;4.30;;;;;;;;;;354769;27;1143;-67
2021/06/13 00:01:40;;;;;;;6.70;4.22;;;;;;;;;;354749;27;1150;-67
2021/06/13 00:01:52;;;;;;;6.13;4.22;;;;;;;;;;354799;27;1137;-67
2021/06/13 00:02:05;;;;;;;5.07;4.15;;;;;;;;;;354598;27;1008;-67
2021/06/13 00:02:17;;;;;;;4.85;4.00;;;;;;;;;;354556;27;1073;-66
2021/06/13 00:02:29;;;;;;;4.70;3.80;;;;;;;;;;354638;27;957;-67
2021/06/13 00:02:44;;;;;;;4.57;3.92;;;;;;;;;;354633;27;1080;-67
2021/06/13 00:02:57;;;;;;;4.40;3.83;;;;;;;;;;352581;27;63774;-68
2021/06/13 00:03:10;;;;;;;4.40;3.75;;;;;;;;;;354798;27;1245;-66
2021/06/13 00:03:22;;;;;;;4.10;3.60;;;;;;;;;;354765;27;2073;-66
2021/06/13 00:03:34;;;;;;;4.85;3.83;;;;;;;;;;354494;27;1060;-66
2021/06/13 00:03:47;;;;;;;5.38;4.05;;;;;;;;;;354772;27;1227;-67
2021/06/13 00:03:59;;;;;;;4.97;4.13;;;;;;;;;;354756;27;1168;-67
2021/06/13 00:04:11;;;;;;;4.78;4.13;;;;;;;;;;354807;27;1910;-67
2021/06/13 00:04:23;;;;;;;5.60;4.05;;;;;;;;;;354539;27;1346;-66
2021/06/13 00:04:35;;;;;;;5.80;4.07;;;;;;;;;;354846;27;1108;-66
2021/06/13 00:04:48;;;;;;;4.90;4.15;;;;;;;;;;354817;27;1095;-66
2021/06/13 00:05:00;;;;;;;4.85;4.28;;;;;;;;;;354694;27;1084;-66
2021/06/13 00:05:12;;;;;;;5.15;4.20;;;;;;;;;;354609;27;1243;-67
2021/06/13 00:05:24;;;;;;;5.18;3.90;;;;;;;;;;354671;27;1100;-67
2021/06/13 00:05:37;;;;;;;5.00;4.03;;;;;;;;;;354628;27;1092;-65
2021/06/13 00:05:49;;;;;;;5.10;4.10;;;;;;;;;;354696;27;1004;-66
2021/06/13 00:06:01;;;;;;;5.85;4.18;;;;;;;;;;354627;27;1202;-66
2021/06/13 00:06:13;;;;;;;5.90;4.10;;;;;;;;;;354713;27;1066;-66
2021/06/13 00:06:25;;;;;;;4.90;4.00;;;;;;;;;;354739;27;1115;-67
2021/06/13 00:06:38;;;;;;;5.03;4.10;;;;;;;;;;354627;27;1045;-66
2021/06/13 00:06:53;;;;;;;5.85;4.15;;;;;;;;;;354867;27;1020;-66
2021/06/13 00:07:05;;;;;;;5.90;3.85;;;;;;;;;;353442;27;39711;-66
2021/06/13 00:07:17;;;;;;;5.38;3.75;;;;;;;;;;355289;27;1814;-66
2021/06/13 00:07:29;;;;;;;5.85;3.97;;;;;;;;;;353264;27;1836;-66
2021/06/13 00:07:42;;;;;;;6.47;4.38;;;;;;;;;;353262;28;1092;-66
2021/06/13 00:07:54;;;;;;;6.10;4.38;;;;;;;;;;353112;28;1081;-66
2021/06/13 00:08:06;;;;;;;5.80;4.28;;;;;;;;;;353267;28;1083;-67
2021/06/13 00:08:19;;;;;;;5.57;4.03;;;;;;;;;;353646;27;2037;-66
2021/06/13 00:08:31;;;;;;;4.85;4.05;;;;;;;;;;354642;27;1092;-66
2021/06/13 00:08:43;;;;;;;4.40;3.92;;;;;;;;;;354599;27;1917;-67
2021/06/13 00:08:55;;;;;;;4.80;4.10;;;;;;;;;;354609;27;1065;-67
2021/06/13 00:09:07;;;;;;;5.40;4.20;;;;;;;;;;354456;27;1198;-67
2021/06/13 00:09:23;;;;;;;5.63;4.28;;;;;;;;;;354659;27;1230;-65
2021/06/13 00:09:35;;;;;;;5.45;4.30;;;;;;;;;;354680;27;39757;-66
2021/06/13 00:09:47;;;;;;;5.57;4.20;;;;;;;;;;356173;27;1053;-66
2021/06/13 00:10:00;;;;;;;5.45;3.95;;;;;;;;;;356118;27;1101;-66
2021/06/13 00:10:14;;;;;;;5.68;4.00;;;;;;;;;;356166;27;949;-67
2021/06/13 00:10:26;;;;;;;4.93;4.00;;;;;;;;;;355651;27;16616;-66
2021/06/13 00:10:38;;;;;;;4.85;4.07;;;;;;;;;;356173;27;1072;-67
2021/06/13 00:10:50;;;;;;;5.15;4.10;;;;;;;;;;356103;27;972;-66
2021/06/13 00:11:03;;;;;;;5.70;4.20;;;;;;;;;;356175;27;1139;-66
2021/06/13 00:11:15;;;;;;;5.43;4.05;;;;;;;;;;356341;27;1178;-67
2021/06/13 00:11:28;;;;;;;5.05;4.10;;;;;;;;;;356052;27;967;-67
2021/06/13 00:11:40;;;;;;;4.40;4.00;;;;;;;;;;356058;27;1020;-67
2021/06/13 00:11:52;;;;;;;4.65;3.88;;;;;;;;;;356064;27;997;-66
2021/06/13 00:12:05;;;;;;;5.97;4.22;;;;;;;;;;354530;27;1104;-66
2021/06/13 00:12:18;;;;;;;5.93;4.40;;;;;;;;;;354630;27;1064;-67
2021/06/13 00:12:30;;;;;;;5.50;4.25;;;;;;;;;;354645;27;1009;-67
2021/06/13 00:12:42;;;;;;;5.13;4.30;;;;;;;;;;354568;27;1102;-67
2021/06/13 00:12:54;;;;;;;5.72;4.22;;;;;;;;;;353303;28;1218;-65
2021/06/13 00:13:08;;;;;;;6.13;4.18;;;;;;;;;;353389;28;1595;-66
2021/06/13 00:13:20;;;;;;;5.63;4.07;;;;;;;;;;353208;28;1128;-66
2021/06/13 00:13:32;;;;;;;5.25;4.13;;;;;;;;;;353311;28;1179;-66
2021/06/13 00:13:44;;;;;;;5.38;4.10;;;;;;;;;;353216;28;1028;-65
2021/06/13 00:13:57;;;;;;;5.30;4.30;;;;;;;;;;353190;28;1100;-67
2021/06/13 00:14:09;;;;;;;4.88;4.30;;;;;;;;;;354469;27;1836;-66
2021/06/13 00:14:22;;;;;;;5.05;4.43;;;;;;;;;;354590;27;1171;-66
2021/06/13 00:14:34;;;;;;;4.95;4.30;;;;;;;;;;354576;27;1069;-66
2021/06/13 00:14:46;;;;;;;5.05;4.05;;;;;;;;;;354533;27;1234;-67
2021/06/13 00:14:58;;;;;;;5.30;4.00;;;;;;;;;;355807;27;1106;-66
2021/06/13 00:15:12;;;;;;;5.57;4.22;;;;;;;;;;356257;27;1134;-66
2021/06/13 00:15:25;;;;;;;5.90;4.43;;;;;;;;;;355689;27;18116;-66
2021/06/13 00:15:37;;;;;;;6.13;4.25;;;;;;;;;;355926;27;1309;-67
2021/06/13 00:15:49;;;;;;;5.45;4.10;;;;;;;;;;356163;27;1057;-65
2021/06/13 00:16:02;;;;;;;4.88;4.13;;;;;;;;;;356255;27;1149;-66
2021/06/13 00:16:15;;;;;;;4.93;4.20;;;;;;;;;;356124;27;1073;-66
2021/06/13 00:16:27;;;;;;;5.53;4.00;;;;;;;;;;356262;27;1089;-66
2021/06/13 00:16:39;;;;;;;5.43;3.90;;;;;;;;;;354525;27;1052;-66
2021/06/13 00:16:52;;;;;;;5.00;4.03;;;;;;;;;;354533;27;1128;-67
2021/06/13 00:17:05;;;;;;;4.82;4.25;;;;;;;;;;354659;27;1199;-66
2021/06/13 00:17:18;;;;;;;5.16;4.26;;;;;;;;;;354535;27;1060;-66
2021/06/13 00:17:31;;;;;;;5.72;4.20;;;;;;;;;;353213;28;1119;-66
2021/06/13 00:17:43;;;;;;;5.13;4.10;;;;;;;;;;353242;28;1076;-67
2021/06/13 00:17:55;;;;;;;5.40;4.13;;;;;;;;;;352525;28;1853;-67
2021/06/13 00:18:07;;;;;;;6.00;4.57;;;;;;;;;;351939;28;1893;-67
2021/06/13 00:18:20;;;;;;;6.25;4.80;;;;;;;;;;351883;28;1172;-65
2021/06/13 00:18:33;;;;;;;6.15;4.63;;;;;;;;;;351759;28;1192;-68
2021/06/13 00:18:46;;;;;;;5.13;4.22;;;;;;;;;;353205;28;992;-66
2021/06/13 00:18:58;;;;;;;5.15;3.97;;;;;;;;;;353185;28;1100;-66
2021/06/13 00:19:10;;;;;;;5.63;4.03;;;;;;;;;;353106;28;1092;-66
2021/06/13 00:19:22;;;;;;;5.63;4.40;;;;;;;;;;353226;28;1126;-67
2021/06/13 00:19:34;;;;;;;5.95;4.55;;;;;;;;;;354281;27;1073;-66
2021/06/13 00:19:46;;;;;;;6.32;4.68;;;;;;;;;;354675;27;1209;-66
2021/06/13 00:19:59;;;;;;;5.57;4.70;;;;;;;;;;356006;27;1079;-66
2021/06/13 00:20:12;;;;;;;5.63;4.38;;;;;;;;;;356216;27;1132;-65
2021/06/13 00:20:28;;;;;;;5.10;4.20;;;;;;;;;;356021;27;1108;-66
2021/06/13 00:20:41;;;;;;;4.32;3.92;;;;;;;;;;353994;27;62578;-66
2021/06/13 00:20:53;;;;;;;4.40;3.97;;;;;;;;;;356257;27;1105;-66
2021/06/13 00:21:05;;;;;;;4.80;4.20;;;;;;;;;;356109;27;1157;-67
2021/06/13 00:21:18;;;;;;;5.05;4.28;;;;;;;;;;356139;27;1044;-66
2021/06/13 00:21:30;;;;;;;5.03;4.30;;;;;;;;;;356217;27;1124;-66
2021/06/13 00:21:42;;;;;;;6.35;4.50;;;;;;;;;;355040;27;1852;-66
2021/06/13 00:21:54;;;;;;;6.40;4.47;;;;;;;;;;354733;27;1160;-67
2021/06/13 00:22:06;;;;;;;5.50;4.45;;;;;;;;;;354704;27;1083;-67
2021/06/13 00:22:20;;;;;;;5.75;4.50;;;;;;;;;;353978;27;16680;-65
2021/06/13 00:22:32;;;;;;;5.65;4.55;;;;;;;;;;353378;27;996;-66
2021/06/13 00:22:44;;;;;;;5.18;4.40;;;;;;;;;;353554;27;1930;-66
2021/06/13 00:22:57;;;;;;;5.45;4.30;;;;;;;;;;353348;27;1092;-67
2021/06/13 00:23:09;;;;;;;6.00;4.20;;;;;;;;;;353316;27;1246;-66
2021/06/13 00:23:21;;;;;;;5.50;4.20;;;;;;;;;;353464;27;1108;-67
2021/06/13 00:23:34;;;;;;;5.55;4.35;;;;;;;;;;353396;27;1064;-66
2021/06/13 00:24:02;;;;;;;6.65;4.30;;;;;;;;;;351300;27;62196;-66
2021/06/13 00:24:14;;;;;;;5.68;4.20;;;;;;;;;;353524;27;1442;-67
2021/06/13 00:24:26;;;;;;;5.07;4.00;;;;;;;;;;353507;27;1009;-65
2021/06/13 00:24:39;;;;;;;4.80;4.03;;;;;;;;;;355018;27;1159;-66
2021/06/13 00:24:51;;;;;;;5.05;3.97;;;;;;;;;;355088;27;1084;-67
2021/06/13 00:25:03;;;;;;;4.88;3.90;;;;;;;;;;354844;27;1112;-66
2021/06/13 00:25:16;;;;;;;4.53;4.03;;;;;;;;;;354886;27;1140;-66
2021/06/13 00:25:31;;;;;;;4.40;4.00;;;;;;;;;;355041;27;1072;-66
2021/06/13 00:25:43;;;;;;;6.38;4.20;;;;;;;;;;353766;27;40821;-66
2021/06/13 00:25:55;;;;;;;7.15;4.50;;;;;;;;;;354960;27;993;-66
2021/06/13 00:26:08;;;;;;;7.25;4.38;;;;;;;;;;354748;27;1161;-66
2021/06/13 00:26:20;;;;;;;6.78;4.35;;;;;;;;;;354999;27;1036;-67
2021/06/13 00:26:32;;;;;;;5.13;4.35;;;;;;;;;;354799;27;1112;-65
2021/06/13 00:26:44;;;;;;;5.05;4.55;;;;;;;;;;354923;27;1233;-65
2021/06/13 00:26:56;;;;;;;5.00;4.40;;;;;;;;;;354916;27;1290;-66
2021/06/13 00:27:09;;;;;;;5.10;4.18;;;;;;;;;;355016;27;1016;-66
2021/06/13 00:27:21;;;;;;;5.10;4.07;;;;;;;;;;354861;27;2077;-66
2021/06/13 00:27:33;;;;;;;5.20;4.30;;;;;;;;;;355044;27;1085;-66
2021/06/13 00:27:45;;;;;;;5.60;4.40;;;;;;;;;;354760;27;1069;-66
2021/06/13 00:27:57;;;;;;;5.82;4.25;;;;;;;;;;354928;27;1059;-66
2021/06/13 00:28:10;;;;;;;6.07;4.30;;;;;;;;;;354760;27;1084;-65
2021/06/13 00:28:22;;;;;;;5.65;4.40;;;;;;;;;;354983;27;1077;-66
2021/06/13 00:28:34;;;;;;;5.20;4.38;;;;;;;;;;355228;27;1903;-66
2021/06/13 00:28:46;;;;;;;6.40;4.35;;;;;;;;;;354980;27;1859;-66
2021/06/13 00:28:58;;;;;;;6.22;4.18;;;;;;;;;;355114;27;1102;-67
2021/06/13 00:29:11;;;;;;;6.18;4.28;;;;;;;;;;354913;27;1210;-66
2021/06/13 00:29:23;;;;;;;5.07;4.13;;;;;;;;;;354985;27;1113;-70
2021/06/13 00:29:35;;;;;;;5.75;4.38;;;;;;;;;;354905;27;1907;-66
2021/06/13 00:29:47;;;;;;;5.40;4.30;;;;;;;;;;354772;27;1080;-66
2021/06/13 00:29:59;;;;;;;5.40;4.15;;;;;;;;;;355057;27;1000;-66
2021/06/13 00:30:13;;;;;;;5.40;4.13;;;;;;;;;;354887;27;1930;-66
2021/06/13 00:30:25;;;;;;;5.57;4.30;;;;;;;;;;353623;27;40616;-67
2021/06/13 00:30:37;;;;;;;5.50;4.30;;;;;;;;;;354676;27;973;-66
2021/06/13 00:30:49;;;;;;;5.20;4.30;;;;;;;;;;354950;27;1143;-66
2021/06/13 00:31:02;;;;;;;5.18;4.25;;;;;;;;;;354989;27;1100;-65
2021/06/13 00:31:15;;;;;;;5.18;4.40;;;;;;;;;;354968;27;1196;-66
2021/06/13 00:31:27;;;;;;;5.30;4.38;;;;;;;;;;354871;27;1163;-66
2021/06/13 00:31:40;;;;;;;4.85;4.20;;;;;;;;;;355010;27;992;-65
2021/06/13 00:31:52;;;;;;;4.72;4.20;;;;;;;;;;353447;27;1057;-65
2021/06/13 00:32:04;;;;;;;5.22;4.45;;;;;;;;;;353512;27;1005;-68
2021/06/13 00:32:17;;;;;;;5.75;4.60;;;;;;;;;;353522;27;1096;-66
2021/06/13 00:32:29;;;;;;;6.03;4.57;;;;;;;;;;353471;27;1100;-67
2021/06/13 00:32:41;;;;;;;6.00;4.32;;;;;;;;;;353457;27;1201;-65
2021/06/13 00:32:53;;;;;;;5.30;4.00;;;;;;;;;;353416;27;1021;-67
2021/06/13 00:33:05;;;;;;;4.97;4.10;;;;;;;;;;353493;27;1083;-66
2021/06/13 00:33:17;;;;;;;5.03;4.13;;;;;;;;;;353490;27;1072;-66
2021/06/13 00:33:30;;;;;;;5.63;4.22;;;;;;;;;;353276;27;1135;-66
2021/06/13 00:33:42;;;;;;;6.03;4.20;;;;;;;;;;353665;27;1035;-66
2021/06/13 00:33:54;;;;;;;6.20;4.20;;;;;;;;;;353555;27;1014;-66
2021/06/13 00:34:06;;;;;;;5.30;4.20;;;;;;;;;;353663;27;1100;-66
2021/06/13 00:34:19;;;;;;;5.18;4.10;;;;;;;;;;353382;27;1186;-66
2021/06/13 00:34:31;;;;;;;5.15;4.20;;;;;;;;;;353429;27;1123;-67
2021/06/13 00:34:43;;;;;;;5.25;4.30;;;;;;;;;;353578;27;1044;-66
2021/06/13 00:34:57;;;;;;;5.10;4.22;;;;;;;;;;353781;27;1869;-68
2021/06/13 00:35:10;;;;;;;4.50;3.92;;;;;;;;;;353100;27;16608;-65
2021/06/13 00:35:22;;;;;;;4.40;3.85;;;;;;;;;;353394;27;1034;-65
2021/06/13 00:35:35;;;;;;;4.45;3.97;;;;;;;;;;353630;27;1116;-66
2021/06/13 00:35:47;;;;;;;5.20;4.30;;;;;;;;;;354907;27;1088;-68
2021/06/13 00:35:59;;;;;;;5.70;4.28;;;;;;;;;;353415;27;1072;-66
2021/06/13 00:36:11;;;;;;;5.45;4.15;;;;;;;;;;353284;27;1171;-67
2021/06/13 00:36:23;;;;;;;5.55;4.20;;;;;;;;;;353469;27;1180;-65
2021/06/13 00:36:35;;;;;;;5.70;4.15;;;;;;;;;;353460;27;1112;-66
2021/06/13 00:36:47;;;;;;;5.53;4.15;;;;;;;;;;353278;27;1201;-65
2021/06/13 00:36:59;;;;;;;5.28;4.20;;;;;;;;;;353515;27;1175;-66
2021/06/13 00:37:11;;;;;;;5.95;4.25;;;;;;;;;;353227;27;1072;-66
2021/06/13 00:37:24;;;;;;;5.20;4.20;;;;;;;;;;353396;27;1132;-65
2021/06/13 00:37:36;;;;;;;6.03;4.20;;;;;;;;;;353505;27;1110;-66
2021/06/13 00:37:48;;;;;;;5.93;4.10;;;;;;;;;;353457;27;1086;-66
2021/06/13 00:38:01;;;;;;;5.18;4.15;;;;;;;;;;353941;27;1067;-67
2021/06/13 00:38:13;;;;;;;5.38;4.30;;;;;;;;;;355030;27;997;-66
2021/06/13 00:38:25;;;;;;;5.75;4.25;;;;;;;;;;354921;27;1183;-66
2021/06/13 00:38:38;;;;;;;5.45;4.20;;;;;;;;;;355085;27;1096;-66
2021/06/13 00:38:50;;;;;;;5.22;4.30;;;;;;;;;;354876;27;1080;-66
2021/06/13 00:39:02;;;;;;;5.30;4.40;;;;;;;;;;354883;27;1108;-66
2021/06/13 00:39:14;;;;;;;6.03;4.50;;;;;;;;;;355577;27;1875;-66
2021/06/13 00:39:26;;;;;;;6.15;4.40;;;;;;;;;;355004;27;1835;-67
2021/06/13 00:39:38;;;;;;;6.32;4.38;;;;;;;;;;354953;27;1088;-65
2021/06/13 00:39:50;;;;;;;7.22;4.50;;;;;;;;;;355052;27;1163;-66
2021/06/13 00:40:03;;;;;;;5.85;4.50;;;;;;;;;;354966;27;1145;-66
2021/06/13 00:40:17;;;;;;;5.35;4.22;;;;;;;;;;354886;27;1047;-66
2021/06/13 00:40:30;;;;;;;5.22;4.10;;;;;;;;;;354364;27;17739;-66
2021/06/13 00:40:42;;;;;;;5.68;4.10;;;;;;;;;;355088;27;1088;-66
2021/06/13 00:40:54;;;;;;;5.55;4.28;;;;;;;;;;354890;27;1368;-67
2021/06/13 00:41:08;;;;;;;5.03;4.40;;;;;;;;;;355027;27;1267;-66
2021/06/13 00:41:21;;;;;;;5.13;4.32;;;;;;;;;;354896;27;1132;-66
2021/06/13 00:41:33;;;;;;;5.85;4.47;;;;;;;;;;352933;27;1601;-66
2021/06/13 00:41:45;;;;;;;5.38;4.38;;;;;;;;;;353423;27;1219;-66
2021/06/13 00:41:57;;;;;;;5.20;4.35;;;;;;;;;;353435;27;1220;-66
2021/06/13 00:42:09;;;;;;;6.00;4.03;;;;;;;;;;353335;27;1217;-66
2021/06/13 00:42:22;;;;;;;5.80;4.05;;;;;;;;;;353454;27;1236;-65
2021/06/13 00:42:35;;;;;;;4.97;4.22;;;;;;;;;;353333;27;1104;-66
2021/06/13 00:42:47;;;;;;;5.30;4.50;;;;;;;;;;353340;27;1032;-66
2021/06/13 00:42:59;;;;;;;5.40;4.53;;;;;;;;;;353511;27;981;-66
2021/06/13 00:43:11;;;;;;;5.28;4.38;;;;;;;;;;352022;28;1096;-66
2021/06/13 00:43:24;;;;;;;5.85;4.30;;;;;;;;;;352008;28;1025;-66
2021/06/13 00:43:36;;;;;;;5.80;4.28;;;;;;;;;;352658;27;1220;-66
2021/06/13 00:43:48;;;;;;;5.22;4.25;;;;;;;;;;353432;27;1243;-66
2021/06/13 00:44:00;;;;;;;4.72;4.10;;;;;;;;;;353529;27;1940;-66
2021/06/13 00:44:12;;;;;;;5.30;4.28;;;;;;;;;;353423;27;1056;-66
2021/06/13 00:44:25;;;;;;;5.88;4.30;;;;;;;;;;353473;27;1061;-66
2021/06/13 00:44:37;;;;;;;6.65;4.35;;;;;;;;;;353331;27;1167;-66
2021/06/13 00:44:49;;;;;;;6.50;4.28;;;;;;;;;;353583;27;1491;-66
2021/06/13 00:45:02;;;;;;;5.10;4.10;;;;;;;;;;353485;27;1117;-66
2021/06/13 00:45:14;;;;;;;5.00;4.07;;;;;;;;;;354135;27;1132;-66
2021/06/13 00:45:27;;;;;;;5.07;4.43;;;;;;;;;;354933;27;1087;-67
2021/06/13 00:45:39;;;;;;;5.22;4.45;;;;;;;;;;355004;27;1057;-66
2021/06/13 00:45:51;;;;;;;4.88;4.38;;;;;;;;;;354851;27;1103;-66
2021/06/13 00:46:03;;;;;;;5.75;4.13;;;;;;;;;;355192;27;1373;-66
2021/06/13 00:46:16;;;;;;;5.82;4.05;;;;;;;;;;355001;27;1151;-66
2021/06/13 00:46:28;;;;;;;6.07;4.32;;;;;;;;;;354899;27;1106;-66
2021/06/13 00:46:40;;;;;;;6.07;4.38;;;;;;;;;;354888;27;1214;-66
2021/06/13 00:46:52;;;;;;;5.43;4.05;;;;;;;;;;354980;27;1006;-66
2021/06/13 00:47:05;;;;;;;4.90;4.00;;;;;;;;;;354881;27;1332;-66
2021/06/13 00:47:17;;;;;;;4.88;4.03;;;;;;;;;;354966;27;1479;-66
2021/06/13 00:47:29;;;;;;;6.53;4.40;;;;;;;;;;354866;27;1169;-66
2021/06/13 00:47:41;;;;;;;7.15;4.40;;;;;;;;;;354980;27;1163;-67
2021/06/13 00:47:54;;;;;;;6.90;4.45;;;;;;;;;;354982;27;1457;-67
2021/06/13 00:48:06;;;;;;;6.68;4.30;;;;;;;;;;353468;27;1178;-67
2021/06/13 00:48:18;;;;;;;7.10;4.20;;;;;;;;;;353346;27;1159;-65
2021/06/13 00:48:30;;;;;;;7.25;4.40;;;;;;;;;;353477;27;1136;-66
2021/06/13 00:48:43;;;;;;;6.22;4.30;;;;;;;;;;353416;27;1167;-67
2021/06/13 00:48:55;;;;;;;6.15;4.32;;;;;;;;;;353506;27;1201;-66
2021/06/13 00:49:07;;;;;;;6.97;4.40;;;;;;;;;;353238;27;1105;-66
2021/06/13 00:49:20;;;;;;;7.07;4.38;;;;;;;;;;353334;27;1175;-69
2021/06/13 00:49:32;;;;;;;6.00;4.32;;;;;;;;;;353535;27;1071;-66
2021/06/13 00:49:44;;;;;;;5.45;4.40;;;;;;;;;;353474;27;1829;-66
2021/06/13 00:49:56;;;;;;;5.45;4.38;;;;;;;;;;353656;27;1852;-69
2021/06/13 00:50:23;;;;;;;5.35;4.25;;;;;;;;;;354232;27;1145;-66
2021/06/13 00:50:42;;;;;;;4.93;4.10;;;;;;;;;;352739;27;63573;-66
2021/06/13 00:50:54;;;;;;;5.63;3.92;;;;;;;;;;352798;27;63417;-67
2021/06/13 00:51:07;;;;;;;6.60;4.00;;;;;;;;;;354799;27;1085;-66
2021/06/13 00:51:19;;;;;;;6.72;4.28;;;;;;;;;;354947;27;1093;-67
2021/06/13 00:51:31;;;;;;;5.50;4.45;;;;;;;;;;354869;27;1200;-65
2021/06/13 00:51:43;;;;;;;5.47;4.55;;;;;;;;;;355035;27;1080;-66
2021/06/13 00:51:55;;;;;;;5.72;4.40;;;;;;;;;;354798;27;1910;-66
2021/06/13 00:52:08;;;;;;;5.85;4.38;;;;;;;;;;354847;27;1103;-66
2021/06/13 00:52:20;;;;;;;5.38;4.30;;;;;;;;;;355035;27;1131;-66
2021/06/13 00:52:32;;;;;;;5.35;4.28;;;;;;;;;;354821;27;973;-65
2021/06/13 00:52:44;;;;;;;5.78;4.50;;;;;;;;;;354829;27;1306;-67
2021/06/13 00:52:57;;;;;;;6.07;4.47;;;;;;;;;;354994;27;962;-66
2021/06/13 00:53:09;;;;;;;6.78;4.50;;;;;;;;;;354769;27;1013;-67
2021/06/13 00:53:22;;;;;;;6.28;4.30;;;;;;;;;;354941;27;990;-67
2021/06/13 00:53:34;;;;;;;5.57;4.00;;;;;;;;;;355078;27;978;-68
2021/06/13 00:53:48;;;;;;;5.20;3.85;;;;;;;;;;355000;27;1100;-66
2021/06/13 00:54:01;;;;;;;6.22;4.20;;;;;;;;;;354162;27;16971;-66
2021/06/13 00:54:13;;;;;;;6.78;4.30;;;;;;;;;;354904;27;1934;-66
2021/06/13 00:54:27;;;;;;;5.97;4.13;;;;;;;;;;354951;27;1201;-65
2021/06/13 00:54:40;;;;;;;5.60;4.22;;;;;;;;;;353613;27;38682;-66
2021/06/13 00:54:52;;;;;;;6.80;4.35;;;;;;;;;;354793;27;1098;-66
2021/06/13 00:55:05;;;;;;;7.72;4.45;;;;;;;;;;354857;27;1083;-66
2021/06/13 00:55:17;;;;;;;7.50;4.78;;;;;;;;;;354907;27;1096;-66
2021/06/13 00:55:29;;;;;;;5.85;4.68;;;;;;;;;;354894;27;1576;-66
2021/06/13 00:55:42;;;;;;;5.32;4.35;;;;;;;;;;355066;27;1116;-67
2021/06/13 00:55:54;;;;;;;5.30;4.30;;;;;;;;;;354891;27;1105;-66
2021/06/13 00:56:07;;;;;;;6.78;4.45;;;;;;;;;;354920;27;1103;-67
2021/06/13 00:56:19;;;;;;;6.28;4.40;;;;;;;;;;355059;27;1040;-66
2021/06/13 00:56:31;;;;;;;5.40;4.40;;;;;;;;;;354873;27;1125;-66
2021/06/13 00:56:43;;;;;;;5.57;4.40;;;;;;;;;;354961;27;1144;-66
2021/06/13 00:56:55;;;;;;;5.82;4.72;;;;;;;;;;355016;27;1143;-67
2021/06/13 00:57:07;;;;;;;5.28;4.75;;;;;;;;;;355036;27;1046;-66
2021/06/13 00:57:20;;;;;;;5.45;4.60;;;;;;;;;;354832;27;1060;-65
2021/06/13 00:57:32;;;;;;;5.74;4.26;;;;;;;;;;354948;27;1053;-66
2021/06/13 00:57:44;;;;;;;6.00;4.18;;;;;;;;;;354683;27;1289;-66
2021/06/13 00:57:56;;;;;;;6.03;4.30;;;;;;;;;;354805;27;2109;-66
2021/06/13 00:58:09;;;;;;;5.80;4.45;;;;;;;;;;354753;27;1781;-65
2021/06/13 00:58:21;;;;;;;6.53;4.63;;;;;;;;;;355048;27;1097;-66
2021/06/13 00:58:33;;;;;;;6.53;4.65;;;;;;;;;;354746;27;1168;-66
2021/06/13 00:58:47;;;;;;;5.57;4.50;;;;;;;;;;354866;27;1093;-66
2021/06/13 00:59:00;;;;;;;6.28;4.60;;;;;;;;;;354880;27;1080;-65
2021/06/13 00:59:13;;;;;;;6.36;4.28;;;;;;;;;;354962;27;1257;-65
2021/06/13 00:59:25;;;;;;;6.40;4.20;;;;;;;;;;354829;27;1184;-68
2021/06/13 00:59:37;;;;;;;7.45;4.45;;;;;;;;;;354814;27;993;-66
2021/06/13 00:59:49;;;;;;;7.25;4.45;;;;;;;;;;354926;27;978;-66
2021/06/13 01:00:03;;;;;;;6.78;4.50;;;;;;;;;;354915;27;1041;-66
2021/06/13 01:00:15;;;;;;;5.10;4.38;;;;;;;;;;354806;27;1175;-66
2021/06/13 01:00:28;;;;;;;5.57;4.32;;;;;;;;;;353191;27;1948;-66
2021/06/13 01:00:40;;;;;;;5.82;4.25;;;;;;;;;;353390;27;1872;-66
2021/06/13 01:00:52;;;;;;;6.38;4.38;;;;;;;;;;353453;27;1017;-69
2021/06/13 01:01:04;;;;;;;6.03;4.50;;;;;;;;;;353447;27;1001;-66
2021/06/13 01:01:17;;;;;;;7.20;4.75;;;;;;;;;;353470;27;1126;-65
2021/06/13 01:01:29;;;;;;;9.05;4.85;;;;;;;;;;353411;27;1137;-66
2021/06/13 01:01:43;;;;;;;8.32;4.70;;;;;;;;;;353439;27;1227;-66
2021/06/13 01:01:55;;;;;;;7.47;4.53;;;;;;;;;;353466;27;1270;-66
2021/06/13 01:02:07;;;;;;;5.05;4.45;;;;;;;;;;353273;27;1029;-66
2021/06/13 01:02:20;;;;;;;6.53;4.80;;;;;;;;;;353222;27;1160;-65
2021/06/13 01:02:32;;;;;;;6.95;4.70;;;;;;;;;;354872;27;1936;-66
2021/06/13 01:02:44;;;;;;;6.97;4.75;;;;;;;;;;355011;27;996;-66
2021/06/13 01:02:57;;;;;;;6.32;4.68;;;;;;;;;;355021;27;1101;-65
2021/06/13 01:03:09;;;;;;;5.43;4.32;;;;;;;;;;354717;27;1075;-65
2021/06/13 01:03:21;;;;;;;5.75;4.30;;;;;;;;;;354806;27;1121;-66
2021/06/13 01:03:34;;;;;;;6.96;4.54;;;;;;;;;;355004;27;1211;-66
2021/06/13 01:03:47;;;;;;;7.00;4.60;;;;;;;;;;353427;27;979;-66
2021/06/13 01:04:00;;;;;;;6.93;4.38;;;;;;;;;;352991;27;16144;-66
2021/06/13 01:04:12;;;;;;;6.72;4.30;;;;;;;;;;353342;27;1093;-67
2021/06/13 01:04:24;;;;;;;5.95;4.40;;;;;;;;;;353504;27;1172;-65
2021/06/13 01:04:37;;;;;;;6.45;4.53;;;;;;;;;;353485;27;1256;-65
2021/06/13 01:04:49;;;;;;;6.60;4.50;;;;;;;;;;353566;27;1168;-65
2021/06/13 01:05:02;;;;;;;7.05;4.40;;;;;;;;;;353493;27;1051;-66
2021/06/13 01:05:15;;;;;;;6.15;4.40;;;;;;;;;;353403;27;1112;-66
2021/06/13 01:05:28;;;;;;;6.63;4.55;;;;;;;;;;353543;27;1178;-66
2021/06/13 01:05:40;;;;;;;6.03;4.43;;;;;;;;;;353466;27;1053;-67
2021/06/13 01:05:52;;;;;;;6.20;4.40;;;;;;;;;;354884;27;1179;-65
2021/06/13 01:06:04;;;;;;;6.85;4.32;;;;;;;;;;354689;27;1198;-67
2021/06/13 01:06:20;;;;;;;7.50;4.47;;;;;;;;;;354958;27;1072;-67
2021/06/13 01:07:03;;;;;;;6.65;4.65;;;;;;;;;;353566;27;41166;-66
2021/06/13 01:07:32;;;;;;;6.00;4.30;;;;;;;;;;345419;28;63668;-66
2021/06/13 01:07:51;;;;;;;6.35;4.63;;;;;;;;;;345664;28;63280;-66
2021/06/13 01:08:09;;;;;;;7.43;4.80;;;;;;;;;;345468;28;64724;-66
2021/06/13 01:08:39;;;;;;;6.63;4.72;;;;;;;;;;345657;28;64557;-67
2021/06/13 01:08:55;;;;;;;5.88;4.50;;;;;;;;;;345508;28;64632;-65
2021/06/13 01:09:09;;;;;;;6.07;4.30;;;;;;;;;;345678;28;64815;-66
2021/06/13 01:09:24;;;;;;;7.00;4.53;;;;;;;;;;344215;28;63151;-66
2021/06/13 01:09:41;;;;;;;7.43;4.68;;;;;;;;;;346422;28;1095;-66
2021/06/13 01:09:55;;;;;;;6.10;4.55;;;;;;;;;;344160;28;64043;-66
2021/06/13 01:10:11;;;;;;;6.18;4.65;;;;;;;;;;345225;28;40204;-66
2021/06/13 01:10:41;;;;;;;6.30;4.70;;;;;;;;;;345098;28;39798;-65
2021/06/13 01:11:12;;;;;;;5.93;4.38;;;;;;;;;;344332;28;63439;-66
2021/06/13 01:11:33;;;;;;;7.72;4.70;;;;;;;;;;345545;28;64370;-66
2021/06/13 01:12:05;;;;;;;7.72;4.88;;;;;;;;;;345684;28;64147;-66
2021/06/13 01:12:27;;;;;;;6.20;4.72;;;;;;;;;;345667;28;64325;-66
2021/06/13 01:12:42;;;;;;;6.80;4.85;;;;;;;;;;345497;28;63387;-65
2021/06/13 01:12:57;;;;;;;6.20;4.80;;;;;;;;;;345786;28;64790;-65
2021/06/13 01:13:35;;;;;;;5.55;4.45;;;;;;;;;;347122;28;17100;-66
2021/06/13 01:13:47;;;;;;;6.00;4.53;;;;;;;;;;343108;28;64335;-64
2021/06/13 01:14:04;;;;;;;5.84;4.40;;;;;;;;;;347988;28;1078;-66
2021/06/13 01:14:22;;;;;;;5.80;4.57;;;;;;;;;;346079;28;87611;-65
2021/06/13 01:14:54;;;;;;;5.82;4.60;;;;;;;;;;346889;28;63813;-65
2021/06/13 01:15:11;;;;;;;6.40;4.50;;;;;;;;;;341361;28;64743;-65
2021/06/13 01:15:26;;;;;;;6.18;4.65;;;;;;;;;;342696;28;64066;-65
2021/06/13 01:15:41;;;;;;;6.35;4.50;;;;;;;;;;347860;28;40912;-65
2021/06/13 01:16:02;;;;;;;7.97;4.70;;;;;;;;;;347832;28;41136;-66
2021/06/13 01:16:33;;;;;;;7.75;4.60;;;;;;;;;;346900;28;63438;-66
2021/06/13 01:16:49;;;;;;;5.43;4.43;;;;;;;;;;345577;28;64732;-65
2021/06/13 01:17:06;;;;;;;5.45;4.50;;;;;;;;;;344297;28;64023;-65
2021/06/13 01:17:28;;;;;;;7.38;4.70;;;;;;;;;;342742;28;62486;-66
2021/06/13 01:17:44;;;;;;;8.05;4.68;;;;;;;;;;342984;28;63377;-66
2021/06/13 01:18:19;;;;;;;6.05;4.60;;;;;;;;;;342932;28;64026;-66
2021/06/13 01:18:57;;;;;;;7.15;4.35;;;;;;;;;;338847;29;64416;-66
2021/06/13 01:19:16;;;;;;;5.40;4.45;;;;;;;;;;339332;28;64973;-66
2021/06/13 01:19:37;;;;;;;5.95;4.25;;;;;;;;;;341552;28;64646;-66
2021/06/13 01:20:02;;;;;;;5.40;4.30;;;;;;;;;;341567;28;63743;-66
2021/06/13 01:20:25;;;;;;;4.78;4.15;;;;;;;;;;341568;28;63463;-65
2021/06/13 01:20:42;;;;;;;5.72;4.57;;;;;;;;;;341504;28;64621;-67
2021/06/13 01:21:08;;;;;;;6.68;4.60;;;;;;;;;;341598;28;64013;-65
2021/06/13 01:21:28;;;;;;;6.95;4.70;;;;;;;;;;341564;28;64362;-66
2021/06/13 01:22:01;;;;;;;5.68;4.70;;;;;;;;;;341561;28;64781;-66
2021/06/13 01:22:28;;;;;;;6.30;4.38;;;;;;;;;;341553;28;63239;-66
2021/06/13 01:22:55;;;;;;;6.07;4.55;;;;;;;;;;341449;28;64431;-66
2021/06/13 01:23:24;;;;;;;6.85;4.70;;;;;;;;;;341780;28;64914;-66
2021/06/13 01:23:39;;;;;;;6.38;4.38;;;;;;;;;;341583;28;64366;-66
2021/06/13 01:24:10;;;;;;;6.43;4.50;;;;;;;;;;342295;28;41855;-66
2021/06/13 01:24:24;;;;;;;6.20;4.53;;;;;;;;;;341646;28;64752;-65
2021/06/13 01:24:55;;;;;;;6.80;4.60;;;;;;;;;;342537;28;40800;-66
2021/06/13 01:25:07;;;;;;;6.97;4.57;;;;;;;;;;341651;28;64547;-69
2021/06/13 01:25:33;;;;;;;6.78;4.47;;;;;;;;;;343858;28;1093;-67
2021/06/13 01:26:04;;;;;;;6.72;4.53;;;;;;;;;;341709;28;63397;-66
2021/06/13 01:26:21;;;;;;;7.95;5.00;;;;;;;;;;341795;28;63202;-66